Alyeska Resort
Hourly Weather - Mid Mountian Site
ALY_MID_HR 7/22/2014
CLICK TO VIEW GRAPH!!

        DATE  TIME   Air   H2o   H2o   New  Snow  BATT   Rel
                    Temp  Inch Since  Snow Depth  Volt  Hum%
                      F   1HR  0600   1HR         AVG   AVG

   7/22/2014 15:00    66  0.00  0.00  49.5  1.64 13.05    50
   7/22/2014 14:00    66  0.00  0.00  49.9  1.47 13.07    54
   7/22/2014 13:00    64  0.00  0.00  51.2  1.02 13.11    57
   7/22/2014 12:00    61  0.00  0.00  59.0  1.86 13.15    62
   7/22/2014 11:00    57  0.00  0.00  58.4  1.97 13.19    64
   7/22/2014 10:00    54  0.00  0.00  52.5  0.93 13.20    73
   7/22/2014 09:00    53  0.00  0.00  51.1  1.62 13.20    75
   7/22/2014 08:00    53  0.00  0.00  48.9  2.45 13.20    75
   7/22/2014 07:00    52  0.00  0.00  47.4  0.76 13.21    75
   7/22/2014 06:00    51  0.00  0.00  49.3  0.47 13.20    79
   7/22/2014 05:00    51  0.00  0.00  51.6  0.54 13.19    78
   7/22/2014 04:00    52  0.00  0.00  54.3  0.00 13.18    77
   7/22/2014 03:00    53  0.00  0.00  54.3  0.13 13.17    75
   7/22/2014 02:00    54  0.00  0.00  52.5  0.46 13.16    74
   7/22/2014 01:00    55  0.00  0.00  50.1  0.20 13.14    72
   7/21/2014 24:00    55  0.00  0.00  49.1  0.08 13.12    69
   7/21/2014 23:00    57  0.00  0.00  48.4  1.87 13.10    68
   7/21/2014 22:00    59  0.00  0.00  48.4  0.30 13.08    66
   7/21/2014 21:00    62  0.00  0.00  48.6  0.36 13.06    60
   7/21/2014 20:00    67  0.00  0.00  48.9  0.02 13.05    50
   7/21/2014 19:00    68  0.00  0.00  49.5  0.37 13.04    48
   7/21/2014 18:00    70  0.00  0.00  49.9  0.37 13.03    46
   7/21/2014 17:00    69  0.00  0.00  50.0  2.96 13.04    51
   7/21/2014 16:00    66  0.00  0.00  50.5  0.83 13.06    56


CLICK TO VIEW GRAPH!!